sensor_id;sensor_type;location;lat;lon;timestamp;pressure;altitude;pressure_sealevel;temperature;humidity
24588;BME280;12744;52.270;9.746;2022-09-21T00:00:08;108905.22;;;8.53;nan
24588;BME280;12744;52.270;9.746;2022-09-21T00:02:39;108933.94;;;8.61;nan
24588;BME280;12744;52.270;9.746;2022-09-21T00:05:10;109025.38;;;8.85;nan
24588;BME280;12744;52.270;9.746;2022-09-21T00:07:41;109049.63;;;8.89;nan
24588;BME280;12744;52.270;9.746;2022-09-21T00:10:13;109114.22;;;9.06;nan
24588;BME280;12744;52.270;9.746;2022-09-21T00:12:45;109044.34;;;8.83;nan
24588;BME280;12744;52.270;9.746;2022-09-21T00:15:17;108959.34;;;8.55;nan
24588;BME280;12744;52.270;9.746;2022-09-21T00:17:51;108968.38;;;8.54;nan
24588;BME280;12744;52.270;9.746;2022-09-21T00:20:23;109027.47;;;8.72;nan
24588;BME280;12744;52.270;9.746;2022-09-21T00:22:55;109045.59;;;8.70;nan
24588;BME280;12744;52.270;9.746;2022-09-21T00:25:26;109080.59;;;8.78;nan
24588;BME280;12744;52.270;9.746;2022-09-21T00:27:57;109101.31;;;8.79;nan
24588;BME280;12744;52.270;9.746;2022-09-21T00:30:28;109051.25;;;8.59;nan
24588;BME280;12744;52.270;9.746;2022-09-21T00:32:59;109046.72;;;8.60;nan
24588;BME280;12744;52.270;9.746;2022-09-21T00:35:30;109012.81;;;8.44;nan
24588;BME280;12744;52.270;9.746;2022-09-21T00:38:02;108811.41;;;7.82;nan
24588;BME280;12744;52.270;9.746;2022-09-21T00:40:33;108765.88;;;7.64;nan
24588;BME280;12744;52.270;9.746;2022-09-21T00:43:14;108945.69;;;8.21;nan
24588;BME280;12744;52.270;9.746;2022-09-21T00:45:47;108886.53;;;8.06;nan
24588;BME280;12744;52.270;9.746;2022-09-21T00:48:20;108913.41;;;8.12;nan
24588;BME280;12744;52.270;9.746;2022-09-21T00:50:53;108911.72;;;8.08;nan
24588;BME280;12744;52.270;9.746;2022-09-21T00:53:25;108808.88;;;7.74;nan
24588;BME280;12744;52.270;9.746;2022-09-21T00:55:58;108697.13;;;7.39;nan
24588;BME280;12744;52.270;9.746;2022-09-21T00:58:34;108762.41;;;7.59;nan
24588;BME280;12744;52.270;9.746;2022-09-21T01:01:09;108825.06;;;7.76;nan
24588;BME280;12744;52.270;9.746;2022-09-21T01:03:42;108739.22;;;7.49;nan
24588;BME280;12744;52.270;9.746;2022-09-21T01:06:18;108781.31;;;7.59;nan
24588;BME280;12744;52.270;9.746;2022-09-21T01:08:52;108821.66;;;7.66;nan
24588;BME280;12744;52.270;9.746;2022-09-21T01:22:36;109079.91;;;8.28;nan
24588;BME280;12744;52.270;9.746;2022-09-21T01:30:26;108928.97;;;7.63;nan
24588;BME280;12744;52.270;9.746;2022-09-21T01:33:14;108809.13;;;7.22;nan
24588;BME280;12744;52.270;9.746;2022-09-21T01:35:49;108861.97;;;7.36;nan
24588;BME280;12744;52.270;9.746;2022-09-21T01:38:29;108968.56;;;7.64;nan
24588;BME280;12744;52.270;9.746;2022-09-21T01:41:03;108819.19;;;7.16;nan
24588;BME280;12744;52.270;9.746;2022-09-21T01:43:38;108875.59;;;7.29;nan
24588;BME280;12744;52.270;9.746;2022-09-21T01:46:15;108954.38;;;7.53;nan
24588;BME280;12744;52.270;9.746;2022-09-21T01:48:53;108985.75;;;7.58;nan
24588;BME280;12744;52.270;9.746;2022-09-21T01:51:27;108925.72;;;7.46;nan
24588;BME280;12744;52.270;9.746;2022-09-21T01:54:03;108866.63;;;7.27;nan
24588;BME280;12744;52.270;9.746;2022-09-21T01:56:42;108798.63;;;7.07;nan
24588;BME280;12744;52.270;9.746;2022-09-21T02:02:33;108932.78;;;7.51;nan
24588;BME280;12744;52.270;9.746;2022-09-21T02:05:06;108920.31;;;7.46;nan
24588;BME280;12744;52.270;9.746;2022-09-21T02:07:38;108958.84;;;7.55;nan
24588;BME280;12744;52.270;9.746;2022-09-21T02:10:14;109011.69;;;7.70;nan
24588;BME280;12744;52.270;9.746;2022-09-21T02:12:52;109034.13;;;7.73;nan
24588;BME280;12744;52.270;9.746;2022-09-21T02:15:39;109017.13;;;7.67;nan
24588;BME280;12744;52.270;9.746;2022-09-21T02:20:58;109020.03;;;7.56;nan
24588;BME280;12744;52.270;9.746;2022-09-21T02:23:41;109012.03;;;7.52;nan
24588;BME280;12744;52.270;9.746;2022-09-21T02:26:21;109008.44;;;7.51;nan
24588;BME280;12744;52.270;9.746;2022-09-21T02:29:08;109030.00;;;7.54;nan
24588;BME280;12744;52.270;9.746;2022-09-21T02:32:02;109075.94;;;7.54;nan
24588;BME280;12744;52.270;9.746;2022-09-21T02:40:41;109218.81;;;7.74;nan
24588;BME280;12744;52.270;9.746;2022-09-21T02:43:20;109251.22;;;7.77;nan
24588;BME280;12744;52.270;9.746;2022-09-21T02:45:59;109345.44;;;8.00;nan
24588;BME280;12744;52.270;9.746;2022-09-21T02:48:37;109367.16;;;7.97;nan
24588;BME280;12744;52.270;9.746;2022-09-21T02:51:26;109422.94;;;8.02;nan
24588;BME280;12744;52.270;9.746;2022-09-21T02:54:03;109484.09;;;8.14;nan
24588;BME280;12744;52.270;9.746;2022-09-21T02:56:37;109545.34;;;8.18;nan
24588;BME280;12744;52.270;9.746;2022-09-21T02:59:09;109464.56;;;7.90;nan
24588;BME280;12744;52.270;9.746;2022-09-21T03:01:40;109461.94;;;7.86;nan
24588;BME280;12744;52.270;9.746;2022-09-21T03:04:12;109483.56;;;7.86;nan
24588;BME280;12744;52.270;9.746;2022-09-21T03:06:43;109481.81;;;7.82;nan
24588;BME280;12744;52.270;9.746;2022-09-21T03:09:14;109375.06;;;7.48;nan
24588;BME280;12744;52.270;9.746;2022-09-21T03:11:45;109263.91;;;7.09;nan
24588;BME280;12744;52.270;9.746;2022-09-21T03:14:16;109286.41;;;7.11;nan
24588;BME280;12744;52.270;9.746;2022-09-21T03:16:48;109216.44;;;6.92;nan
24588;BME280;12744;52.270;9.746;2022-09-21T03:19:19;109237.13;;;6.94;nan
24588;BME280;12744;52.270;9.746;2022-09-21T03:21:50;109160.00;;;6.74;nan
24588;BME280;12744;52.270;9.746;2022-09-21T03:24:21;109161.81;;;6.75;nan
24588;BME280;12744;52.270;9.746;2022-09-21T03:27:17;109183.31;;;6.78;nan
24588;BME280;12744;52.270;9.746;2022-09-21T03:29:49;109146.59;;;6.66;nan
24588;BME280;12744;52.270;9.746;2022-09-21T03:32:20;109153.78;;;6.69;nan
24588;BME280;12744;52.270;9.746;2022-09-21T03:34:51;109139.44;;;6.65;nan
24588;BME280;12744;52.270;9.746;2022-09-21T03:37:22;109163.66;;;6.70;nan
24588;BME280;12744;52.270;9.746;2022-09-21T03:39:56;109188.69;;;6.81;nan
24588;BME280;12744;52.270;9.746;2022-09-21T03:42:28;109117.06;;;6.57;nan
24588;BME280;12744;52.270;9.746;2022-09-21T03:45:02;109147.53;;;6.63;nan
24588;BME280;12744;52.270;9.746;2022-09-21T03:47:34;109148.44;;;6.64;nan
24588;BME280;12744;52.270;9.746;2022-09-21T03:50:06;109162.75;;;6.69;nan
24588;BME280;12744;52.270;9.746;2022-09-21T03:52:38;109133.25;;;6.57;nan
24588;BME280;12744;52.270;9.746;2022-09-21T03:55:09;109047.22;;;6.34;nan
24588;BME280;12744;52.270;9.746;2022-09-21T03:57:40;109034.69;;;6.30;nan
24588;BME280;12744;52.270;9.746;2022-09-21T04:00:15;108985.44;;;6.18;nan
24588;BME280;12744;52.270;9.746;2022-09-21T04:02:46;109059.72;;;6.41;nan
24588;BME280;12744;52.270;9.746;2022-09-21T04:05:17;109040.03;;;6.33;nan
24588;BME280;12744;52.270;9.746;2022-09-21T04:07:49;109019.44;;;6.31;nan
24588;BME280;12744;52.270;9.746;2022-09-21T04:10:21;109065.09;;;6.43;nan
24588;BME280;12744;52.270;9.746;2022-09-21T04:13:02;109139.44;;;6.65;nan
24588;BME280;12744;52.270;9.746;2022-09-21T04:15:34;109030.16;;;6.35;nan
24588;BME280;12744;52.270;9.746;2022-09-21T04:18:06;108988.03;;;6.24;nan
24588;BME280;12744;52.270;9.746;2022-09-21T04:20:37;108958.47;;;6.18;nan
24588;BME280;12744;52.270;9.746;2022-09-21T04:23:08;108943.31;;;6.11;nan
24588;BME280;12744;52.270;9.746;2022-09-21T04:25:39;109109.75;;;6.65;nan
24588;BME280;12744;52.270;9.746;2022-09-21T04:28:14;109126.78;;;6.69;nan
24588;BME280;12744;52.270;9.746;2022-09-21T04:30:45;109129.53;;;6.66;nan
24588;BME280;12744;52.270;9.746;2022-09-21T04:33:16;109026.63;;;6.29;nan
24588;BME280;12744;52.270;9.746;2022-09-21T04:35:47;109040.94;;;6.34;nan
24588;BME280;12744;52.270;9.746;2022-09-21T04:38:18;108910.31;;;5.93;nan
24588;BME280;12744;52.270;9.746;2022-09-21T04:40:55;108922.84;;;5.94;nan
24588;BME280;12744;52.270;9.746;2022-09-21T04:43:26;108847.66;;;5.73;nan
24588;BME280;12744;52.270;9.746;2022-09-21T04:45:57;108859.34;;;5.74;nan
24588;BME280;12744;52.270;9.746;2022-09-21T04:48:34;108812.00;;;5.56;nan
24588;BME280;12744;52.270;9.746;2022-09-21T04:51:06;108776.19;;;5.48;nan
24588;BME280;12744;52.270;9.746;2022-09-21T04:53:38;108780.69;;;5.49;nan
24588;BME280;12744;52.270;9.746;2022-09-21T04:56:13;108857.59;;;5.71;nan
24588;BME280;12744;52.270;9.746;2022-09-21T04:58:45;108927.47;;;5.85;nan
24588;BME280;12744;52.270;9.746;2022-09-21T05:01:16;109036.63;;;6.19;nan
24588;BME280;12744;52.270;9.746;2022-09-21T05:03:47;109026.81;;;6.15;nan
24588;BME280;12744;52.270;9.746;2022-09-21T05:06:21;109010.72;;;6.08;nan
24588;BME280;12744;52.270;9.746;2022-09-21T05:08:52;109023.31;;;6.09;nan
24588;BME280;12744;52.270;9.746;2022-09-21T05:11:42;108969.59;;;5.93;nan
24588;BME280;12744;52.270;9.746;2022-09-21T05:14:13;109027.75;;;6.13;nan
24588;BME280;12744;52.270;9.746;2022-09-21T05:16:44;108949.00;;;5.88;nan
24588;BME280;12744;52.270;9.746;2022-09-21T05:19:19;108993.72;;;6.03;nan
24588;BME280;12744;52.270;9.746;2022-09-21T05:21:50;109085.03;;;6.30;nan
24588;BME280;12744;52.270;9.746;2022-09-21T05:24:21;109139.56;;;6.53;nan
24588;BME280;12744;52.270;9.746;2022-09-21T05:26:52;109175.41;;;6.64;nan
24588;BME280;12744;52.270;9.746;2022-09-21T05:29:23;109192.41;;;6.72;nan
24588;BME280;12744;52.270;9.746;2022-09-21T05:32:00;109199.59;;;6.75;nan
24588;BME280;12744;52.270;9.746;2022-09-21T05:37:46;109166.34;;;6.71;nan
24588;BME280;12744;52.270;9.746;2022-09-21T05:40:19;109136.88;;;6.54;nan
24588;BME280;12744;52.270;9.746;2022-09-21T05:42:50;109093.94;;;6.38;nan
24588;BME280;12744;52.270;9.746;2022-09-21T05:45:21;109151.25;;;6.53;nan
24588;BME280;12744;52.270;9.746;2022-09-21T05:58:31;109473.19;;;7.50;nan
24588;BME280;12744;52.270;9.746;2022-09-21T06:03:57;109548.69;;;7.65;nan
24588;BME280;12744;52.270;9.746;2022-09-21T06:06:29;109651.16;;;7.92;nan
24588;BME280;12744;52.270;9.746;2022-09-21T06:09:00;109641.25;;;7.88;nan
24588;BME280;12744;52.270;9.746;2022-09-21T06:11:41;109739.28;;;8.14;nan
24588;BME280;12744;52.270;9.746;2022-09-21T06:14:12;109672.72;;;7.97;nan
24588;BME280;12744;52.270;9.746;2022-09-21T06:16:43;109813.91;;;8.38;nan
24588;BME280;12744;52.270;9.746;2022-09-21T06:19:14;109844.47;;;8.50;nan
24588;BME280;12744;52.270;9.746;2022-09-21T06:21:45;109753.56;;;8.31;nan
24588;BME280;12744;52.270;9.746;2022-09-21T06:24:16;109842.59;;;8.57;nan
24588;BME280;12744;52.270;9.746;2022-09-21T06:26:47;109901.91;;;8.81;nan
24588;BME280;12744;52.270;9.746;2022-09-21T06:29:18;109819.09;;;8.59;nan
24588;BME280;12744;52.270;9.746;2022-09-21T06:31:53;109940.56;;;8.97;nan
24588;BME280;12744;52.270;9.746;2022-09-21T06:34:24;109865.81;;;8.79;nan
24588;BME280;12744;52.270;9.746;2022-09-21T06:36:55;110006.19;;;9.24;nan
24588;BME280;12744;52.270;9.746;2022-09-21T06:39:26;110021.44;;;9.36;nan
24588;BME280;12744;52.270;9.746;2022-09-21T06:41:57;110109.69;;;9.64;nan
24588;BME280;12744;52.270;9.746;2022-09-21T06:44:29;110102.38;;;9.72;nan
24588;BME280;12744;52.270;9.746;2022-09-21T06:47:00;110177.91;;;10.09;nan
24588;BME280;12744;52.270;9.746;2022-09-21T06:49:31;110005.63;;;9.73;nan
24588;BME280;12744;52.270;9.746;2022-09-21T06:52:02;110007.25;;;9.86;nan
24588;BME280;12744;52.270;9.746;2022-09-21T06:54:34;110013.44;;;9.97;nan
24588;BME280;12744;52.270;9.746;2022-09-21T06:57:05;109927.72;;;9.84;nan
24588;BME280;12744;52.270;9.746;2022-09-21T06:59:36;109860.03;;;9.73;nan
24588;BME280;12744;52.270;9.746;2022-09-21T07:02:08;110072.69;;;10.33;nan
24588;BME280;12744;52.270;9.746;2022-09-21T07:04:39;109977.91;;;10.15;nan
24588;BME280;12744;52.270;9.746;2022-09-21T07:07:10;110203.16;;;10.87;nan
24588;BME280;12744;52.270;9.746;2022-09-21T07:09:41;110314.81;;;11.36;nan
24588;BME280;12744;52.270;9.746;2022-09-21T07:12:12;110079.22;;;10.78;nan
24588;BME280;12744;52.270;9.746;2022-09-21T07:14:44;110122.31;;;11.02;nan
24588;BME280;12744;52.270;9.746;2022-09-21T07:17:16;110089.53;;;11.11;nan
24588;BME280;12744;52.270;9.746;2022-09-21T07:19:46;110134.44;;;11.34;nan
24588;BME280;12744;52.270;9.746;2022-09-21T07:22:17;110089.97;;;11.36;nan
24588;BME280;12744;52.270;9.746;2022-09-21T07:24:48;109961.78;;;11.10;nan
24588;BME280;12744;52.270;9.746;2022-09-21T07:27:19;109881.47;;;10.95;nan
24588;BME280;12744;52.270;9.746;2022-09-21T07:29:51;109929.97;;;11.15;nan
24588;BME280;12744;52.270;9.746;2022-09-21T07:32:22;109968.31;;;11.46;nan
24588;BME280;12744;52.270;9.746;2022-09-21T07:34:54;110049.16;;;11.82;nan
24588;BME280;12744;52.270;9.746;2022-09-21T07:37:27;110018.16;;;11.91;nan
24588;BME280;12744;52.270;9.746;2022-09-21T07:39:58;109928.41;;;11.86;nan
24588;BME280;12744;52.270;9.746;2022-09-21T07:42:29;110021.00;;;12.24;nan
24588;BME280;12744;52.270;9.746;2022-09-21T07:45:00;109875.34;;;12.05;nan
24588;BME280;12744;52.270;9.746;2022-09-21T07:47:32;110015.47;;;12.63;nan
24588;BME280;12744;52.270;9.746;2022-09-21T07:50:03;109944.56;;;12.66;nan
24588;BME280;12744;52.270;9.746;2022-09-21T07:52:34;109868.19;;;12.69;nan
24588;BME280;12744;52.270;9.746;2022-09-21T07:55:05;109747.69;;;12.58;nan
24588;BME280;12744;52.270;9.746;2022-09-21T07:57:37;109740.94;;;12.71;nan
24588;BME280;12744;52.270;9.746;2022-09-21T08:00:27;109792.53;;;13.07;nan
24588;BME280;12744;52.270;9.746;2022-09-21T08:03:02;109681.13;;;12.94;nan
24588;BME280;12744;52.270;9.746;2022-09-21T08:05:33;109716.31;;;13.31;nan
24588;BME280;12744;52.270;9.746;2022-09-21T08:08:04;109739.78;;;13.62;nan
24588;BME280;12744;52.270;9.746;2022-09-21T08:10:35;109447.19;;;13.05;nan
24588;BME280;12744;52.270;9.746;2022-09-21T08:13:07;109572.28;;;13.65;nan
24588;BME280;12744;52.270;9.746;2022-09-21T08:15:38;109527.28;;;13.76;nan
24588;BME280;12744;52.270;9.746;2022-09-21T08:18:09;109357.78;;;13.61;nan
24588;BME280;12744;52.270;9.746;2022-09-21T08:20:40;109352.63;;;13.97;nan
24588;BME280;12744;52.270;9.746;2022-09-21T08:23:11;109207.63;;;13.82;nan
24588;BME280;12744;52.270;9.746;2022-09-21T08:25:42;109234.97;;;14.23;nan
24588;BME280;12744;52.270;9.746;2022-09-21T08:28:14;109080.94;;;14.07;nan
24588;BME280;12744;52.270;9.746;2022-09-21T08:30:46;108970.75;;;14.08;nan
24588;BME280;12744;52.270;9.746;2022-09-21T08:33:17;109002.50;;;14.65;nan
24588;BME280;12744;52.270;9.746;2022-09-21T08:35:56;108947.69;;;15.02;nan
24588;BME280;12744;52.270;9.746;2022-09-21T08:38:32;108849.88;;;15.40;nan
24588;BME280;12744;52.270;9.746;2022-09-21T08:41:16;108565.34;;;15.24;nan
24588;BME280;12744;52.270;9.746;2022-09-21T08:43:59;108370.81;;;15.29;nan
24588;BME280;12744;52.270;9.746;2022-09-21T08:46:34;108172.72;;;15.19;nan
24588;BME280;12744;52.270;9.746;2022-09-21T08:49:21;107901.00;;;15.07;nan
24588;BME280;12744;52.270;9.746;2022-09-21T08:52:04;107841.91;;;15.67;nan
24588;BME280;12744;52.270;9.746;2022-09-21T08:54:57;107674.72;;;15.94;nan
24588;BME280;12744;52.270;9.746;2022-09-21T08:57:31;107356.16;;;15.51;nan
24588;BME280;12744;52.270;9.746;2022-09-21T09:00:06;107223.28;;;15.80;nan
24588;BME280;12744;52.270;9.746;2022-09-21T09:03:35;106984.50;;;15.88;nan
24588;BME280;12744;52.270;9.746;2022-09-21T09:06:03;106766.72;;;16.04;nan
24588;BME280;12744;52.270;9.746;2022-09-21T09:20:18;105837.53;;;16.82;nan
24588;BME280;12744;52.270;9.746;2022-09-21T09:23:05;105597.63;;;16.80;nan
24588;BME280;12744;52.270;9.746;2022-09-21T09:25:42;105572.66;;;17.44;nan
24588;BME280;12744;52.270;9.746;2022-09-21T09:31:10;104972.56;;;16.68;nan
24588;BME280;12744;52.270;9.746;2022-09-21T09:36:19;104679.25;;;17.46;nan
24588;BME280;12744;52.270;9.746;2022-09-21T09:38:59;104483.31;;;17.49;nan
24588;BME280;12744;52.270;9.746;2022-09-21T09:46:52;103995.78;;;17.70;nan
24588;BME280;12744;52.270;9.746;2022-09-21T09:52:10;103541.56;;;17.51;nan
24588;BME280;12744;52.270;9.746;2022-09-21T09:54:42;103269.97;;;17.88;nan
24588;BME280;12744;52.270;9.746;2022-09-21T09:57:14;103158.72;;;17.92;nan
24588;BME280;12744;52.270;9.746;2022-09-21T09:59:49;103164.25;;;18.20;nan
24588;BME280;12744;52.270;9.746;2022-09-21T10:02:26;103045.41;;;18.19;nan
24588;BME280;12744;52.270;9.746;2022-09-21T10:04:59;102905.72;;;18.51;nan
24588;BME280;12744;52.270;9.746;2022-09-21T10:07:40;102860.78;;;18.41;nan
24588;BME280;12744;52.270;9.746;2022-09-21T10:15:51;102563.78;;;17.90;nan
24588;BME280;12744;52.270;9.746;2022-09-21T10:18:36;102295.25;;;17.84;nan
24588;BME280;12744;52.270;9.746;2022-09-21T10:21:16;102231.84;;;18.12;nan
24588;BME280;12744;52.270;9.746;2022-09-21T10:23:55;102052.38;;;17.93;nan
24588;BME280;12744;52.270;9.746;2022-09-21T10:26:34;101851.38;;;18.17;nan
24588;BME280;12744;52.270;9.746;2022-09-21T10:32:01;101890.31;;;18.70;nan
24588;BME280;12744;52.270;9.746;2022-09-21T10:34:34;101851.59;;;18.61;nan
24588;BME280;12744;52.270;9.746;2022-09-21T10:40:00;101710.97;;;17.95;nan
24588;BME280;12744;52.270;9.746;2022-09-21T10:42:41;101594.25;;;18.38;nan
24588;BME280;12744;52.270;9.746;2022-09-21T10:45:17;101493.31;;;18.30;nan
24588;BME280;12744;52.270;9.746;2022-09-21T10:48:12;101382.41;;;18.41;nan
24588;BME280;12744;52.270;9.746;2022-09-21T10:50:45;101570.53;;;18.62;nan
24588;BME280;12744;52.270;9.746;2022-09-21T10:53:42;101438.81;;;18.57;nan
24588;BME280;12744;52.270;9.746;2022-09-21T10:56:17;101523.53;;;18.69;nan
24588;BME280;12744;52.270;9.746;2022-09-21T10:59:16;101309.72;;;18.38;nan
24588;BME280;12744;52.270;9.746;2022-09-21T11:01:52;101375.34;;;18.92;nan
24588;BME280;12744;52.270;9.746;2022-09-21T11:04:28;101151.38;;;18.20;nan
24588;BME280;12744;52.270;9.746;2022-09-21T11:07:23;101188.50;;;18.79;nan
24588;BME280;12744;52.270;9.746;2022-09-21T11:10:18;101365.69;;;18.09;nan
24588;BME280;12744;52.270;9.746;2022-09-21T11:12:52;101202.72;;;18.62;nan
24588;BME280;12744;52.270;9.746;2022-09-21T11:15:29;101102.53;;;17.99;nan
24588;BME280;12744;52.270;9.746;2022-09-21T11:21:25;101238.28;;;18.72;nan
24588;BME280;12744;52.270;9.746;2022-09-21T11:27:23;101465.78;;;18.50;nan
24588;BME280;12744;52.270;9.746;2022-09-21T11:30:12;101444.50;;;18.94;nan
24588;BME280;12744;52.270;9.746;2022-09-21T11:47:13;100837.00;;;19.25;nan
24588;BME280;12744;52.270;9.746;2022-09-21T11:52:56;101130.16;;;19.24;nan
24588;BME280;12744;52.270;9.746;2022-09-21T11:56:01;100967.16;;;19.29;nan
24588;BME280;12744;52.270;9.746;2022-09-21T11:58:56;100798.09;;;20.03;nan
24588;BME280;12744;52.270;9.746;2022-09-21T12:04:56;100650.81;;;19.88;nan
24588;BME280;12744;52.270;9.746;2022-09-21T12:07:58;100748.78;;;20.28;nan
24588;BME280;12744;52.270;9.746;2022-09-21T12:11:05;100872.34;;;20.16;nan
24588;BME280;12744;52.270;9.746;2022-09-21T12:14:08;100928.69;;;19.70;nan
24588;BME280;12744;52.270;9.746;2022-09-21T12:19:40;100963.69;;;19.91;nan
24588;BME280;12744;52.270;9.746;2022-09-21T12:22:21;100952.06;;;19.81;nan
24588;BME280;12744;52.270;9.746;2022-09-21T12:25:20;100797.44;;;19.97;nan
24588;BME280;12744;52.270;9.746;2022-09-21T12:30:55;100600.03;;;19.11;nan
24588;BME280;12744;52.270;9.746;2022-09-21T12:33:48;100667.69;;;19.95;nan
24588;BME280;12744;52.270;9.746;2022-09-21T12:36:27;100630.22;;;20.64;nan
24588;BME280;12744;52.270;9.746;2022-09-21T12:39:25;100636.59;;;20.99;nan
24588;BME280;12744;52.270;9.746;2022-09-21T12:42:06;100708.13;;;21.47;nan
24588;BME280;12744;52.270;9.746;2022-09-21T12:45:16;100710.94;;;20.34;nan
24588;BME280;12744;52.270;9.746;2022-09-21T12:53:13;100828.09;;;20.26;nan
24588;BME280;12744;52.270;9.746;2022-09-21T13:03:48;100886.91;;;19.81;nan
24588;BME280;12744;52.270;9.746;2022-09-21T13:09:22;100854.28;;;20.46;nan
24588;BME280;12744;52.270;9.746;2022-09-21T13:11:56;100895.91;;;19.73;nan
24588;BME280;12744;52.270;9.746;2022-09-21T13:14:32;100967.41;;;19.46;nan
24588;BME280;12744;52.270;9.746;2022-09-21T13:17:06;100957.50;;;20.21;nan
24588;BME280;12744;52.270;9.746;2022-09-21T13:19:55;100852.69;;;19.87;nan
24588;BME280;12744;52.270;9.746;2022-09-21T13:22:33;100689.00;;;20.20;nan
24588;BME280;12744;52.270;9.746;2022-09-21T13:30:34;100642.22;;;20.68;nan
24588;BME280;12744;52.270;9.746;2022-09-21T13:54:27;100597.38;;;20.85;nan
24588;BME280;12744;52.270;9.746;2022-09-21T14:08:11;100568.50;;;20.40;nan
24588;BME280;12744;52.270;9.746;2022-09-21T14:10:54;100866.44;;;20.76;nan
24588;BME280;12744;52.270;9.746;2022-09-21T14:13:43;100840.34;;;21.13;nan
24588;BME280;12744;52.270;9.746;2022-09-21T14:19:57;100717.72;;;19.75;nan
24588;BME280;12744;52.270;9.746;2022-09-21T14:24:49;100600.59;;;20.53;nan
24588;BME280;12744;52.270;9.746;2022-09-21T14:27:43;100653.91;;;20.82;nan
24588;BME280;12744;52.270;9.746;2022-09-21T14:30:18;100751.03;;;21.05;nan
24588;BME280;12744;52.270;9.746;2022-09-21T14:35:33;100572.25;;;20.86;nan
24588;BME280;12744;52.270;9.746;2022-09-21T14:38:17;100529.16;;;20.99;nan
24588;BME280;12744;52.270;9.746;2022-09-21T14:40:51;100663.97;;;21.04;nan
24588;BME280;12744;52.270;9.746;2022-09-21T14:43:30;100467.81;;;20.73;nan
24588;BME280;12744;52.270;9.746;2022-09-21T14:52:51;101021.00;;;20.61;nan
24588;BME280;12744;52.270;9.746;2022-09-21T15:00:45;101275.19;;;18.61;nan
24588;BME280;12744;52.270;9.746;2022-09-21T15:03:51;101654.00;;;18.51;nan
24588;BME280;12744;52.270;9.746;2022-09-21T15:06:31;101822.56;;;18.50;nan
24588;BME280;12744;52.270;9.746;2022-09-21T15:13:04;101851.66;;;18.21;nan
24588;BME280;12744;52.270;9.746;2022-09-21T15:18:24;101936.94;;;18.19;nan
24588;BME280;12744;52.270;9.746;2022-09-21T15:20:56;101821.78;;;17.94;nan
24588;BME280;12744;52.270;9.746;2022-09-21T15:23:38;101846.16;;;17.91;nan
24588;BME280;12744;52.270;9.746;2022-09-21T15:26:15;101811.06;;;17.83;nan
24588;BME280;12744;52.270;9.746;2022-09-21T15:28:53;102021.78;;;18.41;nan
24588;BME280;12744;52.270;9.746;2022-09-21T15:31:31;102034.09;;;18.23;nan
24588;BME280;12744;52.270;9.746;2022-09-21T15:34:06;101914.19;;;17.99;nan
24588;BME280;12744;52.270;9.746;2022-09-21T15:36:39;101851.09;;;17.84;nan
24588;BME280;12744;52.270;9.746;2022-09-21T15:39:26;101861.53;;;17.97;nan
24588;BME280;12744;52.270;9.746;2022-09-21T15:44:37;101845.63;;;17.94;nan
24588;BME280;12744;52.270;9.746;2022-09-21T15:47:10;101886.75;;;17.99;nan
24588;BME280;12744;52.270;9.746;2022-09-21T15:49:42;101914.66;;;17.70;nan
24588;BME280;12744;52.270;9.746;2022-09-21T15:52:30;102007.00;;;17.55;nan
24588;BME280;12744;52.270;9.746;2022-09-21T15:55:16;102141.06;;;17.66;nan
24588;BME280;12744;52.270;9.746;2022-09-21T15:57:53;102114.25;;;17.37;nan
24588;BME280;12744;52.270;9.746;2022-09-21T16:00:31;102226.41;;;17.48;nan
24588;BME280;12744;52.270;9.746;2022-09-21T16:03:06;102241.78;;;17.49;nan
24588;BME280;12744;52.270;9.746;2022-09-21T16:05:51;102346.31;;;17.36;nan
24588;BME280;12744;52.270;9.746;2022-09-21T16:08:35;102383.47;;;17.27;nan
24588;BME280;12744;52.270;9.746;2022-09-21T16:13:46;102657.78;;;16.53;nan
24588;BME280;12744;52.270;9.746;2022-09-21T16:19:43;102880.38;;;16.23;nan
24588;BME280;12744;52.270;9.746;2022-09-21T16:22:18;102926.75;;;16.18;nan
24588;BME280;12744;52.270;9.746;2022-09-21T16:24:53;102988.69;;;16.13;nan
24588;BME280;12744;52.270;9.746;2022-09-21T16:27:27;103031.88;;;16.22;nan
24588;BME280;12744;52.270;9.746;2022-09-21T16:29:59;103051.44;;;16.37;nan
24588;BME280;12744;52.270;9.746;2022-09-21T16:32:32;103054.75;;;16.39;nan
24588;BME280;12744;52.270;9.746;2022-09-21T16:35:25;103029.09;;;16.40;nan
24588;BME280;12744;52.270;9.746;2022-09-21T16:38:01;103034.63;;;16.34;nan
24588;BME280;12744;52.270;9.746;2022-09-21T16:40:32;103060.91;;;16.23;nan
24588;BME280;12744;52.270;9.746;2022-09-21T16:43:03;103101.53;;;16.08;nan
24588;BME280;12744;52.270;9.746;2022-09-21T16:45:35;103116.63;;;16.11;nan
24588;BME280;12744;52.270;9.746;2022-09-21T16:48:06;103118.00;;;16.02;nan
24588;BME280;12744;52.270;9.746;2022-09-21T16:50:37;103124.16;;;16.15;nan
24588;BME280;12744;52.270;9.746;2022-09-21T16:53:08;103114.31;;;15.96;nan
24588;BME280;12744;52.270;9.746;2022-09-21T16:55:40;103134.28;;;15.97;nan
24588;BME280;12744;52.270;9.746;2022-09-21T16:58:12;103149.53;;;16.04;nan
24588;BME280;12744;52.270;9.746;2022-09-21T17:00:43;103144.94;;;16.16;nan
24588;BME280;12744;52.270;9.746;2022-09-21T17:03:14;103142.09;;;15.93;nan
24588;BME280;12744;52.270;9.746;2022-09-21T17:05:46;103171.34;;;15.93;nan
24588;BME280;12744;52.270;9.746;2022-09-21T17:08:17;103202.38;;;15.80;nan
24588;BME280;12744;52.270;9.746;2022-09-21T17:10:48;103214.03;;;15.51;nan
24588;BME280;12744;52.270;9.746;2022-09-21T17:13:19;103219.06;;;15.54;nan
24588;BME280;12744;52.270;9.746;2022-09-21T17:15:50;103234.25;;;15.43;nan
24588;BME280;12744;52.270;9.746;2022-09-21T17:18:22;103240.38;;;15.39;nan
24588;BME280;12744;52.270;9.746;2022-09-21T17:20:53;103249.63;;;15.13;nan
24588;BME280;12744;52.270;9.746;2022-09-21T17:23:26;103277.00;;;15.00;nan
24588;BME280;12744;52.270;9.746;2022-09-21T17:25:59;103293.63;;;14.98;nan